Time;durP1;ratioP1;P1;durP2;ratioP2;P2;SDS_P1;SDS_P2;PMS_P1;PMS_P2;Temp;Humidity;BMP_temperature;BMP_pressure;BME280_temperature;BME280_humidity;BME280_pressure;Samples;Min_cycle;Max_cycle;Signal;HPM_P1;HPM_P2
2022/05/06 00:01:07;;;;;;;8.03;3.03;;;;;;;;;;4998128;28;20276;-82
2022/05/06 00:03:33;;;;;;;4.10;2.85;;;10.60;99.90;;;;;;4997874;28;20192;-82
2022/05/06 00:05:59;;;;;;;4.60;2.35;;;;;;;;;;5015593;28;20181;-82
2022/05/06 00:08:25;;;;;;;6.77;2.97;;;10.40;99.90;;;;;;4981606;28;20196;-82
2022/05/06 00:10:51;;;;;;;5.37;2.87;;;10.40;99.90;;;;;;5015719;28;20181;-81
2022/05/06 00:13:17;;;;;;;3.35;2.25;;;;;;;;;;5015192;28;20297;-82
2022/05/06 00:15:42;;;;;;;6.35;3.15;;;10.50;99.90;;;;;;4997401;28;20227;-82
2022/05/06 00:18:09;;;;;;;8.00;2.88;;;;;;;;;;4997408;28;20217;-81
2022/05/06 00:20:34;;;;;;;3.22;2.53;;;10.00;99.90;;;;;;4997227;28;20188;-82
2022/05/06 00:23:00;;;;;;;3.35;2.50;;;10.40;99.90;;;;;;5015175;28;20188;-81
2022/05/06 00:25:26;;;;;;;4.50;2.63;;;9.90;99.90;;;;;;5014791;28;20212;-82
2022/05/06 00:27:53;;;;;;;6.15;2.50;;;10.30;99.90;;;;;;4997393;28;20645;-81
2022/05/06 00:30:18;;;;;;;4.35;2.58;;;10.10;99.90;;;;;;5014908;28;20208;-81
2022/05/06 00:32:44;;;;;;;2.90;2.23;;;;;;;;;;5014822;28;20224;-81
2022/05/06 00:35:10;;;;;;;4.40;2.80;;;10.40;99.90;;;;;;4997200;28;20193;-81
2022/05/06 00:37:36;;;;;;;4.30;2.55;;;;;;;;;;5014580;28;20236;-82
2022/05/06 00:40:03;;;;;;;5.53;2.37;;;10.00;99.90;;;;;;4997223;28;20181;-81
2022/05/06 00:42:28;;;;;;;4.07;2.33;;;10.10;99.90;;;;;;5014491;28;20184;-82
2022/05/06 00:44:54;;;;;;;3.03;2.37;;;;;;;;;;4964852;28;20185;-81
2022/05/06 00:47:22;;;;;;;5.63;2.60;;;10.00;99.90;;;;;;5014346;28;20216;-82
2022/05/06 00:49:48;;;;;;;4.88;2.67;;;9.90;99.90;;;;;;5014156;28;20556;-82
2022/05/06 00:52:16;;;;;;;6.03;3.07;;;10.20;99.90;;;;;;4996779;28;20228;-82
2022/05/06 00:54:42;;;;;;;2.73;1.93;;;;;;;;;;5014234;28;20181;-83
2022/05/06 00:57:08;;;;;;;5.43;2.77;;;9.90;99.90;;;;;;5014280;28;20233;-82
2022/05/06 01:00:17;;;;;;;2.95;2.17;;;9.90;99.90;;;;;;5014128;28;20319;-83
2022/05/06 01:02:20;;;;;;;3.73;2.30;;;9.80;99.90;;;;;;5013914;28;20208;-82
2022/05/06 01:04:46;;;;;;;3.50;2.60;;;9.80;99.90;;;;;;4996268;28;20275;-82
2022/05/06 01:07:13;;;;;;;5.60;2.70;;;9.60;99.90;;;;;;4996482;28;20182;-82
2022/05/06 01:09:39;;;;;;;3.83;2.17;;;;;;;;;;5013655;28;20174;-82
2022/05/06 01:12:06;;;;;;;4.83;2.50;;;9.90;99.90;;;;;;4996498;28;20195;-82
2022/05/06 01:14:35;;;;;;;7.53;2.63;;;9.50;99.90;;;;;;4996776;28;20236;-83
2022/05/06 01:17:01;;;;;;;6.47;2.93;;;9.30;99.90;;;;;;5014017;28;20212;-83
2022/05/06 01:19:27;;;;;;;3.07;2.67;;;;;;;;;;5013867;28;20696;-81
2022/05/06 01:21:54;;;;;;;4.33;3.00;;;9.90;99.90;;;;;;5013545;28;20263;-82
2022/05/06 01:24:19;;;;;;;4.13;2.50;;;9.60;99.90;;;;;;4996288;28;20265;-82
2022/05/06 01:27:07;;;;;;;3.40;2.40;;;9.40;99.90;;;;;;4996130;28;20646;-81
2022/05/06 01:29:33;;;;;;;4.97;2.63;;;;;;;;;;4996164;28;20177;-83
2022/05/06 01:32:00;;;;;;;6.57;3.10;;;9.20;99.90;;;;;;5013969;28;20181;-82
2022/05/06 01:34:28;;;;;;;6.00;3.30;;;9.70;99.90;;;;;;5013876;28;20240;-82
2022/05/06 01:36:57;;;;;;;4.23;3.17;;;9.40;99.90;;;;;;5013442;28;20205;-83
2022/05/06 01:39:33;;;;;;;6.27;3.23;;;9.20;99.90;;;;;;4996212;28;20216;-83
2022/05/06 01:42:06;;;;;;;5.60;3.50;;;9.20;99.90;;;;;;5013420;28;20196;-82
2022/05/06 01:44:37;;;;;;;3.93;2.70;;;9.40;99.90;;;;;;5013632;28;20216;-87
2022/05/06 01:47:08;;;;;;;7.57;2.87;;;9.30;99.90;;;;;;4996158;28;20181;-83
2022/05/06 01:49:38;;;;;;;5.50;2.73;;;9.30;99.90;;;;;;5013660;28;20169;-84
2022/05/06 01:52:06;;;;;;;4.33;2.70;;;9.10;99.90;;;;;;5013430;28;20184;-83
2022/05/06 01:54:32;;;;;;;5.57;2.67;;;;;;;;;;5014350;28;20272;-82
2022/05/06 01:57:01;;;;;;;4.57;2.27;;;9.30;99.90;;;;;;5014602;28;20777;-81
2022/05/06 01:59:27;;;;;;;5.30;3.33;;;8.90;99.90;;;;;;4996826;28;20208;-82
2022/05/06 02:01:53;;;;;;;3.70;3.27;;;9.40;99.90;;;;;;5013209;28;20948;-83
2022/05/06 02:07:03;;;;;;;6.43;2.80;;;8.80;99.90;;;;;;5013313;28;20203;-82
2022/05/06 02:09:29;;;;;;;9.00;3.03;;;9.40;99.90;;;;;;5013435;28;20212;-82
2022/05/06 02:11:54;;;;;;;3.90;2.47;;;9.10;99.90;;;;;;4997851;28;20227;-82
2022/05/06 02:14:20;;;;;;;6.43;2.80;;;9.20;99.90;;;;;;5017272;28;20303;-82
2022/05/06 02:16:46;;;;;;;5.63;2.90;;;9.50;99.90;;;;;;4983282;28;20307;-83
2022/05/06 02:19:13;;;;;;;5.63;3.83;;;;;;;;;;5017427;28;20614;-83
2022/05/06 02:21:39;;;;;;;4.13;2.90;;;;;;;;;;4999317;28;20275;-84
2022/05/06 02:24:05;;;;;;;3.63;2.53;;;8.90;99.90;;;;;;5017685;28;20316;-83
2022/05/06 02:26:31;;;;;;;7.50;2.87;;;;;;;;;;4999775;28;20649;-82
2022/05/06 02:28:58;;;;;;;4.50;2.53;;;9.00;99.90;;;;;;4999605;28;20258;-82
2022/05/06 02:34:15;;;;;;;4.60;2.70;;;;;;;;;;5017187;28;20247;-82
2022/05/06 02:36:41;;;;;;;3.90;2.63;;;9.30;99.90;;;;;;4999431;28;20209;-83
2022/05/06 02:39:07;;;;;;;9.03;2.90;;;;;;;;;;5017677;28;20232;-82
2022/05/06 02:41:32;;;;;;;5.60;2.50;;;9.40;99.90;;;;;;5017128;28;20181;-82
2022/05/06 02:43:58;;;;;;;4.10;2.67;;;;;;;;;;5016803;28;20185;-82
2022/05/06 02:46:25;;;;;;;4.13;3.00;;;;;;;;;;5016791;28;20185;-82
2022/05/06 02:48:51;;;;;;;8.90;3.17;;;;;;;;;;4999333;28;20622;-82
2022/05/06 02:51:17;;;;;;;4.17;2.70;;;;;;;;;;5017013;28;20205;-82
2022/05/06 02:53:42;;;;;;;3.40;2.50;;;9.30;99.90;;;;;;5017125;28;20618;-82
2022/05/06 02:56:08;;;;;;;3.50;2.47;;;9.20;99.90;;;;;;4999901;28;20181;-82
2022/05/06 02:58:34;;;;;;;3.97;2.67;;;;;;;;;;4999914;28;20240;-82
2022/05/06 03:01:00;;;;;;;4.23;2.87;;;;;;;;;;5017377;28;20232;-82
2022/05/06 03:03:26;;;;;;;6.43;3.93;;;;;;;;;;4999441;28;20185;-82
2022/05/06 03:05:51;;;;;;;7.73;3.13;;;9.50;99.90;;;;;;4999130;28;20660;-82
2022/05/06 03:08:17;;;;;;;6.83;3.40;;;9.30;99.90;;;;;;4982965;28;20192;-82
2022/05/06 03:10:43;;;;;;;14.23;3.70;;;;;;;;;;5017933;28;20181;-86
2022/05/06 03:13:09;;;;;;;6.73;3.37;;;9.70;99.90;;;;;;5003666;28;20185;-82
2022/05/06 03:15:35;;;;;;;3.50;2.93;;;10.00;99.90;;;;;;5003662;28;20189;-82
2022/05/06 03:18:01;;;;;;;5.13;2.90;;;;;;;;;;5003187;28;20205;-82
2022/05/06 03:20:28;;;;;;;4.30;3.30;;;;;;;;;;5009875;28;20237;-81
2022/05/06 03:22:53;;;;;;;5.70;3.13;;;9.60;99.90;;;;;;5039978;28;20181;-83
2022/05/06 03:25:20;;;;;;;4.90;2.90;;;;;;;;;;5040655;28;20217;-82
2022/05/06 03:28:07;;;;;;;3.80;2.57;;;10.20;99.90;;;;;;5023355;28;20193;-86
2022/05/06 03:30:44;;;;;;;8.23;2.90;;;9.60;99.90;;;;;;5014432;28;20189;-81
2022/05/06 03:33:12;;;;;;;3.40;2.53;;;9.60;99.90;;;;;;5018481;28;20966;-81
2022/05/06 03:35:39;;;;;;;4.27;2.70;;;;;;;;;;5024226;28;20201;-90
2022/05/06 03:38:05;;;;;;;3.50;2.73;;;;;;;;;;5026977;28;20236;-83
2022/05/06 03:40:32;;;;;;;3.40;2.40;;;;;;;;;;5038923;28;20179;-85
2022/05/06 03:42:58;;;;;;;4.93;2.70;;;;;;;;;;5031643;28;20200;-83
2022/05/06 03:45:24;;;;;;;6.33;3.13;;;10.10;99.90;;;;;;4998553;28;20280;-83
2022/05/06 03:47:50;;;;;;;3.87;3.07;;;10.50;99.90;;;;;;4997429;28;20272;-84
2022/05/06 03:53:00;;;;;;;4.10;2.27;;;;;;;;;;5014980;28;20192;-83
2022/05/06 03:55:26;;;;;;;3.70;2.20;;;;;;;;;;4998904;28;20201;-83
2022/05/06 03:57:52;;;;;;;2.63;2.33;;;;;;;;;;4977361;28;20710;-83
2022/05/06 04:00:22;;;;;;;3.70;2.30;;;;;;;;;;5018041;28;20248;-83
2022/05/06 04:02:48;;;;;;;5.07;2.67;;;;;;;;;;5018919;28;20191;-83
2022/05/06 04:05:14;;;;;;;5.90;2.13;;;;;;;;;;5015395;28;20189;-83
2022/05/06 04:07:41;;;;;;;3.33;2.07;;;;;;;;;;5015104;28;20189;-83
2022/05/06 04:10:07;;;;;;;4.20;2.53;;;;;;;;;;5014970;28;20192;-84
2022/05/06 04:12:33;;;;;;;6.90;2.63;;;10.30;99.90;;;;;;5015735;28;20215;-83
2022/05/06 04:14:59;;;;;;;3.15;2.30;;;;;;;;;;5013171;28;20654;-84
2022/05/06 04:17:25;;;;;;;5.25;2.72;;;10.80;99.90;;;;;;5013353;28;20220;-83
2022/05/06 04:25:21;;;;;;;2.80;2.45;;;11.30;99.90;;;;;;5013459;28;20615;-84
2022/05/06 04:27:46;;;;;;;4.30;3.13;;;10.90;99.90;;;;;;5013502;28;20193;-83
2022/05/06 04:30:12;;;;;;;3.53;2.35;;;11.30;99.90;;;;;;4995078;28;20238;-83
2022/05/06 04:32:38;;;;;;;7.40;2.47;;;;;;;;;;4995725;28;20661;-84
2022/05/06 04:35:08;;;;;;;3.25;2.53;;;11.20;99.90;;;;;;4993446;28;20237;-83
2022/05/06 04:37:34;;;;;;;4.18;2.72;;;11.40;99.90;;;;;;4978481;28;20615;-83
2022/05/06 04:40:00;;;;;;;6.90;3.03;;;11.60;99.90;;;;;;4994558;28;20204;-83
2022/05/06 04:42:27;;;;;;;5.45;2.58;;;;;;;;;;4991121;28;20643;-83
2022/05/06 04:44:53;;;;;;;4.70;2.60;;;;;;;;;;4991860;28;20254;-87
2022/05/06 04:47:19;;;;;;;4.10;2.53;;;;;;;;;;4981939;28;20197;-84
2022/05/06 04:49:45;;;;;;;7.10;3.22;;;11.80;99.90;;;;;;4994450;28;20194;-83
2022/05/06 04:52:10;;;;;;;6.07;3.10;;;12.00;99.90;;;;;;4998321;28;20211;-82
2022/05/06 04:54:37;;;;;;;7.53;3.97;;;;;;;;;;4989633;28;20182;-84
2022/05/06 04:57:03;;;;;;;5.45;3.17;;;11.80;99.90;;;;;;4989995;28;20256;-83
2022/05/06 04:59:29;;;;;;;4.05;2.88;;;12.20;99.90;;;;;;4992654;28;20216;-85
2022/05/06 05:01:55;;;;;;;5.63;3.15;;;;;;;;;;5009739;28;20658;-84
2022/05/06 05:04:27;;;;;;;4.60;3.22;;;;;;;;;;4993266;28;20186;-84
2022/05/06 05:06:55;;;;;;;6.05;3.88;;;13.00;99.90;;;;;;4994926;28;20197;-83
2022/05/06 05:09:21;;;;;;;4.20;3.15;;;11.90;99.90;;;;;;4979498;28;20209;-83
2022/05/06 05:11:47;;;;;;;4.78;3.17;;;12.30;99.90;;;;;;5013198;28;20219;-83
2022/05/06 05:14:13;;;;;;;5.05;3.22;;;12.70;99.90;;;;;;5012926;28;20173;-83
2022/05/06 05:16:39;;;;;;;4.55;2.88;;;;;;;;;;4995189;28;20252;-83
2022/05/06 05:19:05;;;;;;;4.35;2.97;;;11.90;99.90;;;;;;5012796;28;20645;-83
2022/05/06 05:21:31;;;;;;;8.55;3.85;;;;;;;;;;5013311;28;20188;-83
2022/05/06 05:23:57;;;;;;;5.22;3.30;;;12.30;99.90;;;;;;4995532;28;20192;-85
2022/05/06 05:26:24;;;;;;;5.93;3.58;;;;;;;;;;5013273;28;20177;-83
2022/05/06 05:28:49;;;;;;;7.22;3.95;;;13.00;99.90;;;;;;5013230;28;20177;-84
2022/05/06 05:31:15;;;;;;;6.15;3.92;;;12.70;99.90;;;;;;4995082;28;20700;-86
2022/05/06 05:33:41;;;;;;;5.78;3.70;;;;;;;;;;5012654;28;20185;-85
2022/05/06 05:36:07;;;;;;;6.78;3.47;;;;;;;;;;4995417;28;20177;-85
2022/05/06 05:38:33;;;;;;;3.97;3.42;;;12.80;99.90;;;;;;4995592;28;20291;-84
2022/05/06 05:40:59;;;;;;;5.50;3.67;;;;;;;;;;5011426;28;20335;-84
2022/05/06 05:48:54;;;;;;;5.55;3.90;;;;;;;;;;4996979;28;20192;-84
2022/05/06 05:51:20;;;;;;;8.90;3.97;;;;;;;;;;4994426;28;20185;-84
2022/05/06 05:53:46;;;;;;;6.00;3.60;;;13.30;99.90;;;;;;4972911;28;20216;-83
2022/05/06 05:56:12;;;;;;;4.10;3.30;;;14.00;99.90;;;;;;4994419;28;20270;-84
2022/05/06 05:58:38;;;;;;;7.88;4.05;;;13.40;99.90;;;;;;5011997;28;20324;-84
2022/05/06 06:01:04;;;;;;;6.03;4.25;;;14.00;99.90;;;;;;4993439;28;20197;-85
2022/05/06 06:03:29;;;;;;;6.13;4.07;;;13.70;99.90;;;;;;4994167;28;20189;-84
2022/05/06 06:05:55;;;;;;;7.25;3.97;;;14.20;99.90;;;;;;4994330;28;20550;-85
2022/05/06 06:08:23;;;;;;;6.18;4.32;;;13.90;99.90;;;;;;4994053;28;20866;-85
2022/05/06 06:10:49;;;;;;;8.00;4.03;;;;;;;;;;5012254;28;20693;-86
2022/05/06 06:13:18;;;;;;;5.70;3.50;;;14.50;99.90;;;;;;4989966;28;20189;-82
2022/05/06 06:15:43;;;;;;;6.47;4.28;;;14.40;99.90;;;;;;4993338;28;20307;-83
2022/05/06 06:18:09;;;;;;;7.05;3.85;;;;;;;;;;5006663;28;20325;-83
2022/05/06 06:20:37;;;;;;;6.30;4.00;;;;;;;;;;4994270;28;20204;-82
2022/05/06 06:23:03;;;;;;;6.75;4.60;;;14.60;99.90;;;;;;4994754;28;20185;-86
2022/05/06 06:25:29;;;;;;;5.53;3.78;;;;;;;;;;5010509;28;20638;-84
2022/05/06 06:27:56;;;;;;;7.90;4.70;;;;;;;;;;4994768;28;20638;-85
2022/05/06 06:30:23;;;;;;;7.95;3.90;;;14.20;99.90;;;;;;5012025;28;20542;-84
2022/05/06 06:32:51;;;;;;;7.50;4.45;;;14.60;99.90;;;;;;5012651;28;20204;-84
2022/05/06 06:35:18;;;;;;;6.60;4.35;;;14.80;99.90;;;;;;5012469;28;20169;-84
2022/05/06 06:37:44;;;;;;;5.13;3.42;;;15.10;99.90;;;;;;5012717;28;20212;-83
2022/05/06 06:40:10;;;;;;;5.80;3.72;;;14.80;99.90;;;;;;4994837;28;20239;-83
2022/05/06 06:42:37;;;;;;;5.93;3.72;;;;;;;;;;4994743;28;20859;-84
2022/05/06 06:45:02;;;;;;;5.93;4.50;;;15.20;99.90;;;;;;4995043;28;20296;-84
2022/05/06 06:47:29;;;;;;;7.50;4.15;;;15.10;99.90;;;;;;4994907;28;20218;-84
2022/05/06 06:49:57;;;;;;;8.43;4.03;;;14.60;99.90;;;;;;5012274;28;20638;-83
2022/05/06 06:52:23;;;;;;;7.55;4.85;;;;;;;;;;5012030;28;20185;-84
2022/05/06 06:54:49;;;;;;;6.88;4.13;;;;;;;;;;5012710;28;20182;-85
2022/05/06 06:57:15;;;;;;;6.75;3.97;;;;;;;;;;4979023;28;20858;-84
2022/05/06 06:59:41;;;;;;;6.95;3.83;;;;;;;;;;4998425;28;20188;-84
2022/05/06 07:02:07;;;;;;;4.50;3.50;;;;;;;;;;5015538;28;20176;-85
2022/05/06 07:04:33;;;;;;;6.03;3.92;;;;;;;;;;4998000;28;20239;-85
2022/05/06 07:12:28;;;;;;;9.68;4.63;;;;;;;;;;5015563;28;20261;-86
2022/05/06 07:14:55;;;;;;;8.45;4.85;;;;;;;;;;4998013;28;20704;-87
2022/05/06 07:17:21;;;;;;;5.68;3.95;;;15.70;99.90;;;;;;4997847;28;20292;-87
2022/05/06 07:19:47;;;;;;;8.13;4.78;;;16.10;99.90;;;;;;4982152;28;20189;-86
2022/05/06 07:22:13;;;;;;;13.02;5.07;;;15.80;99.90;;;;;;4997887;28;20178;-85
2022/05/06 07:24:39;;;;;;;6.22;4.32;;;;;;;;;;4982013;28;20680;-85
2022/05/06 07:27:06;;;;;;;8.30;5.03;;;15.80;99.90;;;;;;4998274;28;20178;-85
2022/05/06 07:29:32;;;;;;;8.15;4.30;;;;;;;;;;5014584;28;20181;-86
2022/05/06 07:31:58;;;;;;;7.38;5.00;;;;;;;;;;5014745;28;20177;-85
2022/05/06 07:34:24;;;;;;;11.98;5.75;;;;;;;;;;5014546;28;20265;-85
2022/05/06 07:36:50;;;;;;;10.02;5.28;;;;;;;;;;4998098;28;20212;-85
2022/05/06 07:39:16;;;;;;;8.57;5.35;;;;;;;;;;4997341;28;20589;-85
2022/05/06 07:41:46;;;;;;;8.70;4.88;;;16.00;99.90;;;;;;5015169;28;20241;-86
2022/05/06 07:44:12;;;;;;;9.07;4.95;;;;;;;;;;5014633;28;20280;-86
2022/05/06 07:46:38;;;;;;;8.02;4.32;;;15.80;99.90;;;;;;5015356;28;20169;-85
2022/05/06 07:49:05;;;;;;;12.38;4.82;;;16.10;99.90;;;;;;4982007;28;20185;-85
2022/05/06 07:51:31;;;;;;;8.10;4.95;;;15.90;99.90;;;;;;4981589;28;20572;-85
2022/05/06 07:53:57;;;;;;;7.80;4.75;;;;;;;;;;4981765;28;20700;-85
2022/05/06 07:56:24;;;;;;;8.18;5.05;;;15.80;99.90;;;;;;4997693;28;20197;-85
2022/05/06 07:58:50;;;;;;;8.70;4.93;;;16.30;99.90;;;;;;4997601;28;20233;-85
2022/05/06 08:01:16;;;;;;;8.02;5.10;;;15.90;99.90;;;;;;4997710;28;20205;-85
2022/05/06 08:06:26;;;;;;;7.82;5.18;;;16.40;99.90;;;;;;4998541;28;20204;-86
2022/05/06 08:08:53;;;;;;;9.63;4.78;;;16.40;99.90;;;;;;4978505;28;20701;-85
2022/05/06 08:11:19;;;;;;;7.72;5.05;;;;;;;;;;5012791;28;20181;-86
2022/05/06 08:13:45;;;;;;;8.77;5.10;;;16.10;99.90;;;;;;5013051;28;20177;-85
2022/05/06 08:16:11;;;;;;;7.55;4.63;;;;;;;;;;4995793;28;20185;-86
2022/05/06 08:18:37;;;;;;;10.27;4.85;;;16.40;99.90;;;;;;5012886;28;20566;-85
2022/05/06 08:21:03;;;;;;;9.00;5.28;;;16.30;99.90;;;;;;4996341;28;20179;-86
2022/05/06 08:23:29;;;;;;;10.02;5.53;;;16.40;99.90;;;;;;5014634;28;20211;-85
2022/05/06 08:25:55;;;;;;;8.80;5.88;;;;;;;;;;4997558;28;20212;-88
2022/05/06 08:28:22;;;;;;;8.85;5.47;;;16.90;99.90;;;;;;4980624;28;20710;-87
2022/05/06 08:30:49;;;;;;;7.72;4.95;;;16.80;99.90;;;;;;5013999;28;20215;-86
2022/05/06 08:33:15;;;;;;;10.38;5.30;;;;;;;;;;5014076;28;20200;-85
2022/05/06 08:35:44;;;;;;;12.20;5.68;;;16.80;99.90;;;;;;4997177;28;20184;-85
2022/05/06 08:38:11;;;;;;;10.10;5.30;;;16.90;99.90;;;;;;5013500;28;20569;-86
2022/05/06 08:40:37;;;;;;;14.73;6.45;;;17.10;99.90;;;;;;4997092;28;20177;-88
2022/05/06 08:43:04;;;;;;;11.60;6.70;;;17.60;99.90;;;;;;5015091;28;20188;-87
2022/05/06 08:51:01;;;;;;;11.52;6.30;;;18.20;99.90;;;;;;5011016;28;20249;-88
2022/05/06 08:53:30;;;;;;;9.57;6.30;;;18.80;99.90;;;;;;4997180;28;20260;-90
2022/05/06 08:55:58;;;;;;;11.10;7.32;;;18.10;99.90;;;;;;5014497;28;20188;-88
2022/05/06 08:58:25;;;;;;;13.15;7.60;;;18.50;99.90;;;;;;4995963;28;20240;-89
2022/05/06 09:01:06;;;;;;;9.57;6.05;;;18.70;99.90;;;;;;5014217;28;20622;-88
2022/05/06 09:03:32;;;;;;;17.52;7.45;;;18.10;99.90;;;;;;4995962;28;20800;-90
2022/05/06 09:05:58;;;;;;;8.75;6.30;;;;;;;;;;4995935;28;20256;-88
2022/05/06 09:08:43;;;;;;;12.43;6.95;;;18.30;99.90;;;;;;4995815;28;20189;-89
2022/05/06 09:11:10;;;;;;;10.65;6.63;;;18.50;99.90;;;;;;5012476;28;20169;-89
2022/05/06 09:13:48;;;;;;;11.20;7.10;;;18.50;99.90;;;;;;5013796;28;20185;-88
2022/05/06 09:19:15;;;;;;;8.20;5.50;;;18.90;99.90;;;;;;5026952;28;20196;-88
2022/05/06 09:22:01;;;;;;;9.55;6.43;;;18.80;99.90;;;;;;5038154;28;20180;-89
2022/05/06 09:24:31;;;;;;;11.35;7.47;;;19.20;99.90;;;;;;5021360;28;20168;-87
2022/05/06 09:27:08;;;;;;;9.40;6.45;;;19.50;99.90;;;;;;5020787;28;20362;-88
2022/05/06 09:29:43;;;;;;;12.25;8.23;;;19.10;99.90;;;;;;5037461;28;20197;-88
2022/05/06 09:32:18;;;;;;;11.00;6.97;;;19.80;99.90;;;;;;5037957;28;20169;-89
2022/05/06 09:34:50;;;;;;;11.98;6.82;;;19.50;99.90;;;;;;5037932;28;20173;-91
2022/05/06 09:37:35;;;;;;;8.30;4.90;;;20.10;99.90;;;;;;5038336;28;20212;-87
2022/05/06 09:40:04;;;;;;;6.72;4.95;;;19.60;99.90;;;;;;5038115;28;20364;-86
2022/05/06 09:42:30;;;;;;;9.32;5.53;;;;;;;;;;5037069;28;20177;-85
2022/05/06 09:44:56;;;;;;;8.63;4.38;;;19.60;99.90;;;;;;5037059;28;20174;-88
2022/05/06 09:47:24;;;;;;;6.18;4.82;;;;;;;;;;5003967;28;20232;-86
2022/05/06 09:49:52;;;;;;;6.53;4.45;;;;;;;;;;5036725;28;20173;-85
2022/05/06 09:52:18;;;;;;;7.65;4.43;;;19.30;99.90;;;;;;5000657;28;20181;-86
2022/05/06 09:54:46;;;;;;;5.38;3.55;;;19.80;99.90;;;;;;5012697;28;20205;-87
2022/05/06 09:57:13;;;;;;;4.45;3.28;;;19.50;99.90;;;;;;4994538;28;20233;-85
2022/05/06 09:59:39;;;;;;;5.80;4.07;;;19.40;99.90;;;;;;4978501;28;20173;-86
2022/05/06 10:02:06;;;;;;;6.22;3.75;;;19.20;99.90;;;;;;4995117;28;20213;-86
2022/05/06 10:04:33;;;;;;;4.72;3.15;;;19.60;99.90;;;;;;4979105;28;20181;-85
2022/05/06 10:07:03;;;;;;;5.57;4.10;;;18.90;99.90;;;;;;5013523;28;20185;-84
2022/05/06 10:09:32;;;;;;;6.13;3.95;;;19.50;99.90;;;;;;4995502;28;20533;-84
2022/05/06 10:12:05;;;;;;;7.88;3.88;;;19.10;99.90;;;;;;4995773;28;20260;-88
2022/05/06 10:14:32;;;;;;;6.03;3.67;;;19.80;99.90;;;;;;5013951;28;20169;-87
2022/05/06 10:16:58;;;;;;;6.18;3.80;;;;;;;;;;5015589;28;20212;-87
2022/05/06 10:19:25;;;;;;;5.20;3.20;;;;;;;;;;5015190;28;20185;-87
2022/05/06 10:21:51;;;;;;;4.93;3.03;;;;;;;;;;4996425;28;20185;-87
2022/05/06 10:24:17;;;;;;;4.13;2.72;;;;;;;;;;5013337;28;20181;-86
2022/05/06 10:26:47;;;;;;;3.35;2.08;;;19.60;99.90;;;;;;5012992;28;20173;-86
2022/05/06 10:32:56;;;;;;;4.65;3.03;;;19.70;99.90;;;;;;5014317;28;20252;-87
2022/05/06 10:35:47;;;;;;;4.78;3.28;;;20.30;99.70;;;;;;5017744;28;20162;-87
2022/05/06 10:38:23;;;;;;;5.07;3.60;;;20.00;99.90;;;;;;5017224;28;20251;-87
2022/05/06 10:40:56;;;;;;;4.10;2.90;;;20.00;99.90;;;;;;5000706;28;20183;-86
2022/05/06 10:43:48;;;;;;;4.88;3.60;;;20.20;99.90;;;;;;4983838;28;20212;-87
2022/05/06 10:46:33;;;;;;;4.40;2.95;;;20.70;99.90;;;;;;5008412;28;20192;-85
2022/05/06 10:49:36;;;;;;;5.32;3.05;;;21.10;98.40;;;;;;5017144;28;20630;-87
2022/05/06 10:52:14;;;;;;;3.58;2.53;;;20.90;99.90;;;;;;5016474;28;20649;-88
2022/05/06 10:54:40;;;;;;;3.55;2.45;;;21.70;91.70;;;;;;5016648;28;20185;-88
2022/05/06 10:57:07;;;;;;;5.45;2.33;;;20.70;96.90;;;;;;5017181;28;20232;-87
2022/05/06 10:59:56;;;;;;;4.25;2.35;;;21.00;97.70;;;;;;4983201;28;20173;-87
2022/05/06 11:02:32;;;;;;;2.65;2.10;;;21.90;93.00;;;;;;4999776;28;20188;-88
2022/05/06 11:05:10;;;;;;;3.35;2.40;;;22.00;99.40;;;;;;5016807;28;20168;-88
2022/05/06 11:07:38;;;;;;;3.15;2.22;;;22.00;90.20;;;;;;5000006;28;20680;-86
2022/05/06 11:10:10;;;;;;;4.20;2.28;;;21.70;95.50;;;;;;4999388;28;20693;-87
2022/05/06 11:12:37;;;;;;;3.97;2.45;;;;;;;;;;5016641;28;20259;-87
2022/05/06 11:15:05;;;;;;;2.97;2.00;;;22.10;94.00;;;;;;4998729;28;20185;-86
2022/05/06 11:17:32;;;;;;;3.30;1.92;;;21.90;86.50;;;;;;4998892;28;20219;-87
2022/05/06 11:20:03;;;;;;;4.13;2.60;;;21.50;88.90;;;;;;5014248;28;20216;-87
2022/05/06 11:22:33;;;;;;;6.95;3.08;;;;;;;;;;5014421;28;20660;-85
2022/05/06 11:24:59;;;;;;;5.57;2.60;;;;;;;;;;4976383;28;20185;-87
2022/05/06 11:27:25;;;;;;;3.65;2.53;;;;;;;;;;4997692;28;20223;-85
2022/05/06 11:29:57;;;;;;;3.38;2.47;;;20.70;93.30;;;;;;5016079;28;20189;-87
2022/05/06 11:32:28;;;;;;;2.97;2.30;;;21.20;97.60;;;;;;4998934;28;20180;-88
2022/05/06 11:35:06;;;;;;;5.45;3.63;;;21.10;91.70;;;;;;5016029;28;20169;-87
2022/05/06 11:37:36;;;;;;;8.73;2.75;;;21.70;88.60;;;;;;5012341;28;20210;-87
2022/05/06 11:40:32;;;;;;;4.03;2.42;;;21.70;87.20;;;;;;5014505;28;20650;-87
2022/05/06 11:43:04;;;;;;;3.60;2.75;;;21.20;88.20;;;;;;4990578;28;20177;-87
2022/05/06 11:48:24;;;;;;;4.25;2.90;;;20.50;91.70;;;;;;5000769;28;20176;-86
2022/05/06 11:50:56;;;;;;;4.18;3.08;;;20.40;92.00;;;;;;4997300;28;20184;-87
2022/05/06 11:53:26;;;;;;;8.07;3.03;;;;;;;;;;5015276;28;20197;-86
2022/05/06 11:55:52;;;;;;;4.47;3.63;;;20.30;93.30;;;;;;4997898;28;20192;-86
2022/05/06 11:58:18;;;;;;;3.63;2.58;;;;;;;;;;4996875;28;20323;-85
2022/05/06 12:00:45;;;;;;;3.38;2.50;;;20.10;94.30;;;;;;5014322;28;20186;-87
2022/05/06 12:03:12;;;;;;;5.43;3.72;;;20.10;96.30;;;;;;5013663;28;20192;-86
2022/05/06 12:05:39;;;;;;;4.43;3.42;;;20.10;97.60;;;;;;5013321;28;20272;-87
2022/05/06 12:08:07;;;;;;;4.07;3.47;;;20.60;99.90;;;;;;4995886;28;20195;-85
2022/05/06 12:10:37;;;;;;;4.65;3.30;;;20.20;98.90;;;;;;5013308;28;20656;-86
2022/05/06 12:13:07;;;;;;;5.43;3.30;;;20.50;99.90;;;;;;4995728;28;20642;-85
2022/05/06 12:15:33;;;;;;;4.55;3.65;;;;;;;;;;4996197;28;20251;-86
2022/05/06 12:18:06;;;;;;;5.28;3.63;;;20.10;99.90;;;;;;4995587;28;20717;-85
2022/05/06 12:20:39;;;;;;;5.13;3.40;;;20.80;98.60;;;;;;5012728;28;20673;-84
2022/05/06 12:23:07;;;;;;;5.80;4.43;;;21.30;99.90;;;;;;5011538;28;20177;-85
2022/05/06 12:25:38;;;;;;;4.63;3.08;;;;;;;;;;4980008;28;20260;-84
2022/05/06 12:28:04;;;;;;;5.68;3.28;;;21.50;99.90;;;;;;4995549;28;20251;-86
2022/05/06 12:30:31;;;;;;;5.97;3.70;;;;;;;;;;4995649;28;20636;-86
2022/05/06 12:33:04;;;;;;;5.25;3.35;;;;;;;;;;4995539;28;20235;-84
2022/05/06 12:35:30;;;;;;;4.32;3.33;;;;;;;;;;4985991;28;20272;-88
2022/05/06 12:37:58;;;;;;;4.57;2.63;;;22.30;91.00;;;;;;5013806;28;20757;-87
2022/05/06 12:40:34;;;;;;;4.97;3.40;;;;;;;;;;5014747;28;20280;-87
2022/05/06 12:43:08;;;;;;;2.75;2.50;;;22.20;99.90;;;;;;5013155;28;20212;-87
2022/05/06 12:45:35;;;;;;;4.25;3.03;;;;;;;;;;4995171;28;20266;-85
2022/05/06 12:50:45;;;;;;;4.85;3.50;;;20.60;99.90;;;;;;5013253;28;20553;-87
2022/05/06 12:53:11;;;;;;;4.50;3.50;;;;;;;;;;5012963;28;20181;-86
2022/05/06 12:55:37;;;;;;;4.38;3.03;;;21.50;95.40;;;;;;4995426;28;20177;-86
2022/05/06 12:58:04;;;;;;;4.10;2.60;;;;;;;;;;4974367;28;1138621;-86
2022/05/06 13:00:31;;;;;;;3.65;2.70;;;;;;;;;;4996304;28;20239;-85
2022/05/06 13:02:58;;;;;;;4.50;3.67;;;21.60;99.90;;;;;;5014145;28;20219;-87
2022/05/06 13:05:24;;;;;;;3.30;2.47;;;;;;;;;;4996563;28;20185;-87
2022/05/06 13:07:50;;;;;;;4.43;2.85;;;;;;;;;;4995732;28;20757;-87
2022/05/06 13:10:16;;;;;;;3.42;2.10;;;;;;;;;;4996567;28;20638;-88
2022/05/06 13:12:42;;;;;;;3.50;2.30;;;21.60;99.90;;;;;;4995850;28;20178;-87
2022/05/06 13:15:08;;;;;;;4.18;2.35;;;;;;;;;;4996990;28;20185;-87
2022/05/06 13:17:34;;;;;;;3.28;2.42;;;21.70;99.90;;;;;;5014149;28;20209;-85
2022/05/06 13:19:59;;;;;;;2.85;2.00;;;20.70;97.90;;;;;;4994953;28;20188;-86
2022/05/06 13:22:25;;;;;;;2.90;2.35;;;;;;;;;;5014012;28;20269;-86
2022/05/06 13:24:51;;;;;;;3.00;2.30;;;21.40;99.90;;;;;;5013395;28;20264;-85
2022/05/06 13:27:17;;;;;;;5.45;2.40;;;;;;;;;;5013734;28;20624;-86
2022/05/06 13:29:43;;;;;;;2.60;2.22;;;20.50;99.90;;;;;;4996369;28;20219;-85
2022/05/06 13:32:09;;;;;;;3.92;2.58;;;;;;;;;;5011675;28;20209;-86
2022/05/06 13:34:35;;;;;;;3.45;2.15;;;20.50;98.80;;;;;;4995913;28;20271;-85
2022/05/06 13:37:01;;;;;;;3.50;2.40;;;20.80;90.30;;;;;;4995108;28;20288;-84
2022/05/06 13:39:27;;;;;;;2.83;2.47;;;;;;;;;;5012873;28;20193;-85
2022/05/06 13:41:53;;;;;;;3.80;2.78;;;;;;;;;;4994870;28;20184;-85
2022/05/06 13:44:19;;;;;;;4.22;3.45;;;20.70;92.60;;;;;;5013841;28;20208;-86
2022/05/06 13:46:45;;;;;;;4.28;2.97;;;;;;;;;;4994788;28;20185;-87
2022/05/06 13:49:11;;;;;;;7.70;4.38;;;20.60;93.10;;;;;;4975314;28;20196;-85
2022/05/06 13:51:37;;;;;;;5.25;3.35;;;;;;;;;;4993448;28;20547;-86
2022/05/06 13:54:03;;;;;;;5.15;3.63;;;;;;;;;;4959769;28;20186;-85
2022/05/06 13:59:15;;;;;;;6.55;4.85;;;;;;;;;;4999760;28;20676;-86
2022/05/06 14:01:41;;;;;;;8.15;5.75;;;;;;;;;;4995465;28;20634;-86
2022/05/06 14:04:07;;;;;;;10.25;7.28;;;21.50;93.30;;;;;;5009246;28;20173;-86
2022/05/06 14:06:33;;;;;;;9.65;6.90;;;20.80;95.40;;;;;;5012302;28;20196;-86
2022/05/06 14:09:00;;;;;;;13.95;7.82;;;21.60;96.20;;;;;;5012301;28;20177;-87
2022/05/06 14:11:26;;;;;;;16.05;10.07;;;21.30;97.10;;;;;;4979652;28;20216;-85
2022/05/06 14:13:55;;;;;;;11.60;8.52;;;20.70;93.50;;;;;;5013154;28;20611;-86
2022/05/06 14:16:21;;;;;;;12.48;9.00;;;20.60;99.30;;;;;;4978197;28;20269;-87